createdAt,value
2019-06-26T00:00:51.257Z,13.43
2019-06-26T00:03:18.806Z,13.73
2019-06-26T00:05:45.937Z,13.17
2019-06-26T00:08:13.184Z,13.33
2019-06-26T00:10:40.328Z,12.20
2019-06-26T00:13:07.532Z,12.90
2019-06-26T00:15:34.677Z,12.83
2019-06-26T00:18:01.903Z,12.10
2019-06-26T00:20:29.055Z,13.30
2019-06-26T00:23:01.592Z,13.37
2019-06-26T00:25:28.708Z,13.47
2019-06-26T00:27:56.058Z,13.50
2019-06-26T00:30:23.191Z,14.00
2019-06-26T00:32:50.423Z,14.03
2019-06-26T00:35:17.666Z,13.70
2019-06-26T00:37:44.993Z,13.43
2019-06-26T00:40:13.124Z,14.03
2019-06-26T00:42:40.356Z,13.50
2019-06-26T00:45:07.784Z,13.67
2019-06-26T00:47:35.161Z,14.20
2019-06-26T00:50:03.397Z,14.07
2019-06-26T00:52:31.047Z,13.47
2019-06-26T00:54:58.181Z,13.03
2019-06-26T00:57:25.317Z,13.70
2019-06-26T00:59:52.560Z,14.77
2019-06-26T01:02:19.893Z,14.17
2019-06-26T01:04:48.953Z,14.30
2019-06-26T01:07:16.296Z,13.80
2019-06-26T01:09:43.582Z,13.50
2019-06-26T01:12:10.801Z,14.57
2019-06-26T01:14:38.028Z,14.20
2019-06-26T01:17:05.372Z,15.03
2019-06-26T01:19:32.913Z,14.30
2019-06-26T01:22:00.046Z,15.10
2019-06-26T01:24:27.383Z,12.83
2019-06-26T01:26:54.727Z,14.53
2019-06-26T01:29:21.982Z,14.03
2019-06-26T01:31:49.317Z,14.87
2019-06-26T01:34:16.446Z,15.30
2019-06-26T01:36:43.694Z,14.63
2019-06-26T01:39:10.931Z,15.10
2019-06-26T01:41:38.388Z,15.13
2019-06-26T01:44:14.635Z,15.50
2019-06-26T01:46:34.780Z,15.13
2019-06-26T01:49:01.921Z,14.83
2019-06-26T01:51:29.144Z,16.00
2019-06-26T01:53:56.312Z,15.63
2019-06-26T01:56:23.546Z,15.60
2019-06-26T01:58:50.776Z,15.73
2019-06-26T02:01:18.137Z,14.20
2019-06-26T02:03:46.092Z,16.37
2019-06-26T02:06:13.445Z,14.33
2019-06-26T02:08:40.694Z,15.30
2019-06-26T02:11:08.036Z,15.07
2019-06-26T02:13:35.256Z,15.30
2019-06-26T02:16:02.594Z,15.30
2019-06-26T02:18:40.163Z,15.07
2019-06-26T02:21:07.524Z,16.40
2019-06-26T02:23:34.775Z,16.10
2019-06-26T02:26:01.970Z,15.87
2019-06-26T02:28:29.256Z,16.17
2019-06-26T02:30:56.627Z,16.07
2019-06-26T02:33:23.956Z,17.20
2019-06-26T02:35:51.402Z,17.40
2019-06-26T02:38:18.538Z,17.40
2019-06-26T02:40:45.879Z,16.77
2019-06-26T02:43:13.733Z,15.90
2019-06-26T02:45:40.914Z,16.93
2019-06-26T02:48:08.161Z,16.17
2019-06-26T02:50:35.378Z,16.70
2019-06-26T02:53:02.716Z,16.70
2019-06-26T02:55:29.957Z,16.57
2019-06-26T02:57:57.100Z,16.93
2019-06-26T03:00:24.328Z,16.03
2019-06-26T03:02:51.563Z,17.30
2019-06-26T03:05:18.696Z,16.83
2019-06-26T03:07:45.932Z,17.50
2019-06-26T03:10:13.963Z,17.40
2019-06-26T03:12:41.195Z,17.53
2019-06-26T03:15:09.852Z,16.83
2019-06-26T03:17:51.019Z,17.13
2019-06-26T03:20:07.463Z,18.60
2019-06-26T03:22:34.697Z,18.13
2019-06-26T03:25:02.014Z,18.13
2019-06-26T03:27:29.215Z,19.63
2019-06-26T03:29:56.359Z,17.93
2019-06-26T03:32:23.497Z,18.97
2019-06-26T03:34:50.752Z,18.43
2019-06-26T03:37:17.997Z,17.97
2019-06-26T03:39:45.126Z,15.23
2019-06-26T03:42:12.589Z,17.93
2019-06-26T03:44:39.723Z,17.90
2019-06-26T03:47:06.861Z,16.13
2019-06-26T03:49:34.097Z,19.50
2019-06-26T03:52:01.428Z,19.60
2019-06-26T03:54:28.662Z,19.80
2019-06-26T03:56:56.009Z,19.87
2019-06-26T03:59:23.260Z,18.60
2019-06-26T04:01:50.485Z,18.10
2019-06-26T04:04:17.617Z,18.07
2019-06-26T04:06:44.741Z,17.10
2019-06-26T04:09:11.893Z,16.73
2019-06-26T04:11:39.128Z,17.67
2019-06-26T04:14:06.771Z,17.73
2019-06-26T04:16:34.006Z,17.57
2019-06-26T04:19:01.123Z,18.03
2019-06-26T04:21:28.358Z,18.00
2019-06-26T04:23:55.586Z,16.93
2019-06-26T04:26:22.842Z,16.70
2019-06-26T04:28:50.041Z,19.40
2019-06-26T04:31:17.173Z,17.07
2019-06-26T04:33:44.335Z,17.10
2019-06-26T04:36:11.617Z,16.37
2019-06-26T04:38:38.950Z,15.83
2019-06-26T04:41:06.093Z,18.17
2019-06-26T04:43:33.590Z,17.80
2019-06-26T04:46:00.847Z,17.27
2019-06-26T04:48:27.977Z,16.23
2019-06-26T04:50:55.336Z,17.13
2019-06-26T04:53:22.564Z,16.33
2019-06-26T04:55:49.803Z,16.07
2019-06-26T04:58:16.951Z,16.07
2019-06-26T05:00:44.182Z,15.43
2019-06-26T05:03:11.607Z,14.97
2019-06-26T05:05:40.130Z,13.83
2019-06-26T05:08:07.471Z,14.27
2019-06-26T05:10:34.643Z,14.73
2019-06-26T05:13:01.794Z,13.20
2019-06-26T05:15:28.928Z,14.20
2019-06-26T05:17:56.281Z,13.53
2019-06-26T05:20:23.493Z,12.73
2019-06-26T05:22:50.833Z,14.00
2019-06-26T05:25:18.285Z,12.60
2019-06-26T05:27:55.384Z,12.00
2019-06-26T05:30:23.414Z,11.67
2019-06-26T05:32:50.904Z,11.73
2019-06-26T05:35:18.631Z,10.63
2019-06-26T05:37:45.780Z,12.00
2019-06-26T05:40:14.106Z,11.43
2019-06-26T05:42:41.462Z,10.67
2019-06-26T05:45:11.695Z,11.07
2019-06-26T05:47:39.014Z,10.83
2019-06-26T05:50:08.878Z,10.33
2019-06-26T05:52:36.334Z,11.10
2019-06-26T05:55:04.256Z,10.50
2019-06-26T05:57:31.480Z,10.97
2019-06-26T05:59:58.927Z,10.50
2019-06-26T06:02:26.057Z,11.50
2019-06-26T06:04:53.483Z,10.60
2019-06-26T06:07:20.627Z,11.70
2019-06-26T06:09:47.974Z,10.43
2019-06-26T06:12:15.099Z,11.13
2019-06-26T06:14:42.238Z,11.40
2019-06-26T06:17:09.563Z,9.43
2019-06-26T06:19:36.809Z,10.87
2019-06-26T06:22:04.060Z,11.03
2019-06-26T06:24:31.308Z,10.07
2019-06-26T06:26:58.468Z,11.70
2019-06-26T06:29:25.601Z,10.77
2019-06-26T06:31:52.925Z,10.03
2019-06-26T06:34:20.080Z,10.27
2019-06-26T06:36:47.240Z,9.67
2019-06-26T06:39:14.358Z,10.37
2019-06-26T06:41:43.428Z,9.90
2019-06-26T06:44:10.660Z,11.20
2019-06-26T06:46:37.805Z,11.57
2019-06-26T06:49:05.048Z,11.33
2019-06-26T06:51:32.267Z,11.33
2019-06-26T06:53:59.438Z,11.50
2019-06-26T06:56:26.835Z,11.73
2019-06-26T06:58:54.093Z,10.60
2019-06-26T07:01:21.323Z,11.80
2019-06-26T07:03:48.554Z,12.13
2019-06-26T07:06:15.821Z,11.23
2019-06-26T07:08:42.945Z,11.83
2019-06-26T07:11:10.064Z,11.23
2019-06-26T07:13:37.895Z,10.20
2019-06-26T07:16:12.477Z,11.37
2019-06-26T07:18:42.226Z,10.57
2019-06-26T07:21:12.221Z,10.10
2019-06-26T07:23:39.519Z,9.90
2019-06-26T07:26:06.979Z,9.90
2019-06-26T07:28:34.104Z,9.27
2019-06-26T07:31:01.342Z,9.47
2019-06-26T07:33:29.497Z,9.23
2019-06-26T07:36:00.302Z,9.13
2019-06-26T07:38:30.413Z,8.90
2019-06-26T07:40:57.636Z,10.10
2019-06-26T07:43:24.787Z,8.97
2019-06-26T07:45:52.022Z,10.13
2019-06-26T07:48:19.169Z,8.90
2019-06-26T07:50:46.312Z,10.10
2019-06-26T07:53:13.438Z,7.80
2019-06-26T07:55:44.720Z,9.33
2019-06-26T07:58:11.846Z,9.13
2019-06-26T08:00:39.093Z,8.90
2019-06-26T08:03:06.323Z,9.30
2019-06-26T08:05:33.669Z,9.13
2019-06-26T08:08:01.023Z,9.93
2019-06-26T08:10:28.275Z,9.90
2019-06-26T08:12:55.382Z,9.30
2019-06-26T08:15:22.709Z,8.40
2019-06-26T08:17:59.897Z,9.50
2019-06-26T08:20:19.189Z,8.57
2019-06-26T08:22:46.306Z,8.83
2019-06-26T08:25:13.935Z,9.20
2019-06-26T08:27:41.280Z,8.90
2019-06-26T08:30:09.036Z,9.47
2019-06-26T08:32:36.241Z,8.83
2019-06-26T08:35:04.067Z,8.87
2019-06-26T08:37:36.150Z,8.83
2019-06-26T08:40:04.907Z,8.47
2019-06-26T08:42:32.053Z,9.60
2019-06-26T08:44:59.211Z,9.03
2019-06-26T08:47:26.457Z,8.50
2019-06-26T08:49:53.586Z,8.10
2019-06-26T08:52:21.119Z,8.30
2019-06-26T08:54:48.465Z,8.40
2019-06-26T08:57:15.621Z,8.87
2019-06-26T08:59:42.848Z,8.13
2019-06-26T09:02:10.206Z,8.60
2019-06-26T09:04:37.421Z,9.23
2019-06-26T09:07:04.678Z,8.27
2019-06-26T09:09:31.912Z,8.60
2019-06-26T09:11:59.132Z,8.03
2019-06-26T09:14:26.268Z,8.07
2019-06-26T09:16:53.513Z,8.27
2019-06-26T09:19:25.366Z,8.40
2019-06-26T09:21:52.619Z,8.50
2019-06-26T09:24:19.761Z,7.73
2019-06-26T09:26:47.081Z,7.30
2019-06-26T09:29:14.241Z,7.37
2019-06-26T09:31:41.447Z,7.90
2019-06-26T09:34:08.683Z,7.53
2019-06-26T09:36:35.834Z,7.50
2019-06-26T09:39:05.482Z,7.00
2019-06-26T09:41:32.615Z,7.07
2019-06-26T09:43:59.752Z,7.17
2019-06-26T09:46:27.065Z,7.33
2019-06-26T09:48:54.304Z,6.87
2019-06-26T09:51:21.668Z,6.90
2019-06-26T09:53:48.895Z,6.77
2019-06-26T09:56:16.029Z,6.10
2019-06-26T09:58:43.392Z,6.20
2019-06-26T10:01:10.820Z,6.27
2019-06-26T10:03:37.959Z,6.00
2019-06-26T10:06:05.293Z,5.40
2019-06-26T10:08:32.431Z,5.90
2019-06-26T10:10:59.566Z,5.65
2019-06-26T10:13:26.791Z,5.92
2019-06-26T10:15:54.015Z,5.45
2019-06-26T10:18:21.255Z,5.55
2019-06-26T10:20:48.526Z,5.67
2019-06-26T10:23:32.255Z,5.62
2019-06-26T10:25:59.391Z,6.05
2019-06-26T10:28:26.742Z,5.47
2019-06-26T10:30:54.366Z,5.17
2019-06-26T10:33:21.670Z,5.12
2019-06-26T10:35:49.018Z,5.45
2019-06-26T10:38:16.549Z,5.45
2019-06-26T10:40:43.868Z,5.67
2019-06-26T10:43:11.027Z,5.30
2019-06-26T10:45:43.438Z,5.17
2019-06-26T10:48:10.851Z,5.05
2019-06-26T10:50:47.931Z,5.60
2019-06-26T10:53:07.135Z,5.62
2019-06-26T10:55:34.621Z,6.62
2019-06-26T10:58:01.774Z,5.28
2019-06-26T11:00:30.905Z,5.40
2019-06-26T11:02:58.265Z,5.08
2019-06-26T11:05:25.692Z,5.20
2019-06-26T11:07:52.928Z,5.50
2019-06-26T11:10:20.606Z,5.35
2019-06-26T11:12:49.089Z,5.25
2019-06-26T11:15:17.291Z,4.75
2019-06-26T11:17:44.499Z,5.60
2019-06-26T11:20:12.061Z,4.97
2019-06-26T11:22:39.196Z,4.95
2019-06-26T11:25:07.266Z,4.87
2019-06-26T11:27:40.023Z,5.00
2019-06-26T11:30:08.484Z,5.30
2019-06-26T11:32:35.812Z,4.92
2019-06-26T11:35:04.169Z,5.33
2019-06-26T11:37:31.396Z,5.15
2019-06-26T11:39:58.528Z,5.08
2019-06-26T11:42:25.846Z,5.20
2019-06-26T11:44:52.993Z,4.92
2019-06-26T11:47:20.108Z,5.05
2019-06-26T11:49:59.346Z,5.22
2019-06-26T11:52:17.580Z,4.97
2019-06-26T11:54:44.817Z,5.53
2019-06-26T11:57:11.955Z,4.70
2019-06-26T11:59:39.418Z,5.10
2019-06-26T12:02:07.357Z,4.53
2019-06-26T12:04:34.476Z,4.42
2019-06-26T12:07:01.712Z,5.53
2019-06-26T12:09:28.877Z,4.97
2019-06-26T12:11:56.304Z,4.70
2019-06-26T12:14:23.581Z,4.83
2019-06-26T12:16:51.053Z,5.00
2019-06-26T12:19:22.331Z,4.92
2019-06-26T12:21:47.306Z,5.03
2019-06-26T12:24:14.559Z,4.50
2019-06-26T12:26:41.774Z,4.92
2019-06-26T12:29:09.004Z,5.50
2019-06-26T12:31:36.142Z,5.03
2019-06-26T12:34:03.687Z,5.45
2019-06-26T12:36:30.897Z,4.97
2019-06-26T12:38:58.137Z,4.92
2019-06-26T12:41:25.266Z,5.03
2019-06-26T12:43:52.585Z,4.97
2019-06-26T12:46:19.825Z,5.12
2019-06-26T12:48:47.086Z,4.72
2019-06-26T12:51:14.419Z,4.90
2019-06-26T12:53:41.657Z,5.53
2019-06-26T12:56:08.891Z,4.97
2019-06-26T12:58:36.238Z,5.30
2019-06-26T13:01:03.583Z,5.35
2019-06-26T13:03:30.686Z,5.53
2019-06-26T13:05:57.925Z,5.37
2019-06-26T13:08:25.270Z,5.40
2019-06-26T13:10:52.576Z,5.17
2019-06-26T13:13:19.795Z,5.92
2019-06-26T13:15:50.803Z,5.25
2019-06-26T13:18:16.203Z,5.58
2019-06-26T13:20:52.754Z,5.37
2019-06-26T13:23:14.860Z,5.00
2019-06-26T13:25:41.853Z,5.30
2019-06-26T13:28:09.202Z,5.72
2019-06-26T13:30:37.845Z,5.35
2019-06-26T13:33:05.225Z,5.28
2019-06-26T13:35:32.357Z,5.22
2019-06-26T13:37:59.487Z,5.78
2019-06-26T13:40:26.713Z,5.53
2019-06-26T13:42:53.941Z,5.40
2019-06-26T13:45:30.542Z,5.83
2019-06-26T13:47:57.337Z,5.90
2019-06-26T13:50:24.673Z,6.03
2019-06-26T13:52:52.049Z,5.97
2019-06-26T13:55:19.399Z,5.15
2019-06-26T13:57:46.630Z,5.60
2019-06-26T14:00:15.774Z,5.25
2019-06-26T14:02:43.109Z,5.90
2019-06-26T14:05:12.329Z,5.40
2019-06-26T14:07:40.487Z,6.47
2019-06-26T14:10:09.969Z,6.10
2019-06-26T14:12:37.411Z,5.58
2019-06-26T14:15:05.573Z,6.85
2019-06-26T14:17:32.803Z,5.67
2019-06-26T14:19:59.970Z,5.75
2019-06-26T14:22:27.201Z,5.80
2019-06-26T14:24:54.482Z,6.53
2019-06-26T14:27:21.570Z,6.17
2019-06-26T14:29:49.474Z,6.42
2019-06-26T14:32:16.713Z,6.08
2019-06-26T14:34:43.981Z,6.42
2019-06-26T14:37:11.130Z,6.55
2019-06-26T14:39:40.926Z,6.47
2019-06-26T14:42:07.532Z,6.67
2019-06-26T14:44:34.741Z,6.22
2019-06-26T14:47:02.308Z,6.78
2019-06-26T14:49:29.532Z,6.55
2019-06-26T14:51:56.661Z,7.00
2019-06-26T14:54:23.813Z,6.92
2019-06-26T14:56:50.940Z,6.58
2019-06-26T14:59:18.497Z,6.80
2019-06-26T15:01:49.548Z,5.75
2019-06-26T15:04:16.790Z,6.75
2019-06-26T15:06:44.029Z,6.65
2019-06-26T15:09:11.166Z,6.60
2019-06-26T15:11:38.407Z,7.08
2019-06-26T15:14:05.866Z,7.08
2019-06-26T15:16:33.090Z,6.22
2019-06-26T15:19:00.591Z,7.20
2019-06-26T15:21:27.860Z,6.65
2019-06-26T15:23:55.215Z,6.72
2019-06-26T15:26:22.455Z,7.45
2019-06-26T15:28:49.604Z,7.80
2019-06-26T15:31:16.729Z,7.28
2019-06-26T15:33:44.003Z,6.78
2019-06-26T15:36:11.134Z,6.80
2019-06-26T15:38:38.491Z,7.58
2019-06-26T15:41:05.739Z,7.25
2019-06-26T15:43:32.889Z,7.72
2019-06-26T15:46:00.245Z,7.25
2019-06-26T15:48:27.488Z,7.55
2019-06-26T15:50:54.722Z,6.78
2019-06-26T15:53:21.877Z,7.47
2019-06-26T15:55:49.016Z,7.40
2019-06-26T15:58:16.470Z,7.67
2019-06-26T16:00:44.810Z,7.85
2019-06-26T16:03:12.044Z,7.25
2019-06-26T16:05:39.185Z,7.65
2019-06-26T16:08:06.444Z,7.20
2019-06-26T16:10:34.737Z,8.25
2019-06-26T16:13:02.237Z,7.00
2019-06-26T16:15:29.512Z,7.05
2019-06-26T16:18:08.301Z,7.53
2019-06-26T16:20:35.560Z,8.03
2019-06-26T16:23:02.895Z,7.30
2019-06-26T16:25:30.137Z,6.80
2019-06-26T16:28:05.199Z,6.90
2019-06-26T16:30:26.423Z,7.53
2019-06-26T16:32:56.689Z,6.65
2019-06-26T16:35:22.801Z,7.53
2019-06-26T16:38:04.005Z,6.60
2019-06-26T16:40:31.380Z,7.08
2019-06-26T16:42:58.617Z,7.45
2019-06-26T16:45:25.757Z,6.70
2019-06-26T16:47:53.080Z,6.92
2019-06-26T16:50:20.318Z,6.92
2019-06-26T16:52:49.668Z,7.40
2019-06-26T16:55:17.476Z,6.97
2019-06-26T16:57:44.752Z,7.05
2019-06-26T17:00:15.095Z,7.30
2019-06-26T17:02:42.338Z,7.78
2019-06-26T17:05:10.568Z,7.95
2019-06-26T17:07:37.717Z,7.60
2019-06-26T17:10:06.484Z,7.47
2019-06-26T17:12:33.941Z,7.22
2019-06-26T17:15:04.152Z,7.00
2019-06-26T17:17:30.385Z,6.87
2019-06-26T17:19:57.664Z,7.55
2019-06-26T17:22:24.917Z,6.75
2019-06-26T17:24:52.153Z,7.45
2019-06-26T17:27:19.289Z,7.28
2019-06-26T17:29:46.723Z,7.92
2019-06-26T17:32:14.433Z,7.15
2019-06-26T17:34:41.581Z,7.03
2019-06-26T17:37:08.704Z,7.53
2019-06-26T17:39:35.868Z,7.50
2019-06-26T17:42:03.527Z,7.53
2019-06-26T17:44:30.750Z,7.58
2019-06-26T17:46:57.887Z,7.03
2019-06-26T17:49:25.021Z,7.35
2019-06-26T17:51:52.269Z,7.42
2019-06-26T17:54:19.986Z,7.10
2019-06-26T17:56:47.222Z,7.20
2019-06-26T17:59:14.444Z,7.62
2019-06-26T18:01:41.698Z,7.62
2019-06-26T18:04:08.930Z,7.58
2019-06-26T18:06:36.182Z,7.12
2019-06-26T18:09:06.766Z,7.33
2019-06-26T18:11:34.123Z,7.92
2019-06-26T18:14:01.469Z,7.50
2019-06-26T18:16:28.710Z,7.00
2019-06-26T18:18:55.830Z,7.65
2019-06-26T18:21:22.972Z,7.33
2019-06-26T18:23:50.114Z,7.35
2019-06-26T18:26:17.254Z,7.50
2019-06-26T18:28:44.495Z,7.53
2019-06-26T18:31:11.574Z,7.65
2019-06-26T18:33:46.316Z,7.47
2019-06-26T18:36:16.756Z,6.83
2019-06-26T18:38:43.970Z,7.30
2019-06-26T18:41:11.220Z,7.07
2019-06-26T18:43:38.454Z,8.43
2019-06-26T18:46:05.819Z,8.28
2019-06-26T18:48:37.059Z,9.47
2019-06-26T18:51:13.425Z,9.83
2019-06-26T18:53:53.025Z,10.40
2019-06-26T18:56:09.811Z,9.30
2019-06-26T18:58:36.945Z,10.37
2019-06-26T19:01:05.124Z,10.20
2019-06-26T19:03:32.372Z,10.00
2019-06-26T19:05:59.518Z,10.87
2019-06-26T19:08:26.755Z,9.30
2019-06-26T19:10:54.104Z,9.90
2019-06-26T19:13:21.248Z,9.63
2019-06-26T19:15:48.382Z,9.67
2019-06-26T19:18:15.654Z,9.77
2019-06-26T19:20:42.918Z,9.37
2019-06-26T19:23:11.949Z,9.03
2019-06-26T19:25:39.271Z,9.43
2019-06-26T19:28:06.727Z,8.60
2019-06-26T19:30:34.061Z,9.03
2019-06-26T19:33:01.319Z,8.13
2019-06-26T19:35:28.763Z,8.40
2019-06-26T19:37:55.891Z,9.30
2019-06-26T19:40:24.248Z,8.43
2019-06-26T19:42:51.788Z,8.60
2019-06-26T19:45:19.728Z,8.63
2019-06-26T19:47:47.095Z,8.50
2019-06-26T19:50:14.795Z,8.60
2019-06-26T19:52:41.996Z,8.63
2019-06-26T19:55:09.553Z,9.33
2019-06-26T19:57:36.995Z,8.98
2019-06-26T20:00:05.049Z,7.43
2019-06-26T20:02:32.344Z,8.77
2019-06-26T20:04:59.694Z,8.20
2019-06-26T20:07:28.183Z,7.93
2019-06-26T20:09:55.873Z,7.33
2019-06-26T20:12:23.107Z,8.03
2019-06-26T20:14:50.351Z,7.63
2019-06-26T20:17:17.511Z,7.87
2019-06-26T20:19:45.016Z,7.80
2019-06-26T20:22:12.761Z,8.33
2019-06-26T20:24:44.589Z,8.27
2019-06-26T20:27:09.695Z,8.33
2019-06-26T20:29:44.478Z,7.53
2019-06-26T20:32:11.611Z,7.77
2019-06-26T20:34:38.754Z,8.70
2019-06-26T20:37:06.195Z,8.73
2019-06-26T20:39:33.341Z,9.17
2019-06-26T20:42:02.045Z,8.73
2019-06-26T20:44:29.281Z,8.93
2019-06-26T20:46:56.428Z,8.67
2019-06-26T20:49:23.653Z,8.90
2019-06-26T20:51:50.799Z,9.40
2019-06-26T20:54:17.942Z,9.20
2019-06-26T20:56:45.187Z,9.10
2019-06-26T20:59:12.423Z,9.37
2019-06-26T21:01:39.641Z,9.60
2019-06-26T21:04:06.966Z,9.93
2019-06-26T21:06:34.459Z,10.17
2019-06-26T21:09:01.682Z,10.17
2019-06-26T21:11:29.034Z,9.53
2019-06-26T21:13:56.582Z,9.50
2019-06-26T21:16:23.722Z,9.33
2019-06-26T21:18:50.930Z,9.80
2019-06-26T21:21:18.119Z,10.73
2019-06-26T21:23:45.252Z,9.00
2019-06-26T21:26:12.494Z,10.33
2019-06-26T21:28:39.725Z,10.53
2019-06-26T21:31:06.864Z,9.83
2019-06-26T21:33:44.126Z,10.23
2019-06-26T21:36:11.279Z,10.90
2019-06-26T21:38:38.510Z,10.63
2019-06-26T21:41:05.679Z,9.80
2019-06-26T21:43:32.819Z,10.03
2019-06-26T21:46:00.176Z,9.50
2019-06-26T21:48:27.309Z,10.40
2019-06-26T21:50:54.538Z,10.00
2019-06-26T21:53:21.673Z,10.67
2019-06-26T21:55:48.920Z,10.00
2019-06-26T21:58:16.348Z,10.40
2019-06-26T22:00:44.310Z,11.37
2019-06-26T22:03:11.651Z,9.37
2019-06-26T22:05:39.213Z,10.10
2019-06-26T22:08:06.449Z,10.50
2019-06-26T22:10:33.802Z,9.70
2019-06-26T22:13:01.159Z,10.83
2019-06-26T22:15:39.491Z,10.30
2019-06-26T22:18:07.266Z,10.60
2019-06-26T22:20:34.608Z,10.90
2019-06-26T22:23:01.745Z,11.07
2019-06-26T22:25:29.102Z,10.47
2019-06-26T22:27:56.455Z,10.70
2019-06-26T22:30:24.187Z,10.07
2019-06-26T22:32:51.641Z,10.43
2019-06-26T22:35:19.089Z,10.87
2019-06-26T22:37:46.427Z,9.80
2019-06-26T22:40:14.215Z,10.93
2019-06-26T22:42:41.435Z,11.17
2019-06-26T22:45:09.367Z,10.90
2019-06-26T22:47:36.617Z,9.60
2019-06-26T22:50:05.009Z,9.87
2019-06-26T22:52:32.270Z,10.37
2019-06-26T22:54:59.411Z,10.23
2019-06-26T22:57:26.861Z,10.83
2019-06-26T22:59:54.003Z,10.37
2019-06-26T23:02:21.132Z,10.53
2019-06-26T23:04:48.419Z,10.23
2019-06-26T23:07:15.639Z,10.50
2019-06-26T23:09:42.899Z,10.53
2019-06-26T23:12:10.028Z,10.00
2019-06-26T23:14:37.282Z,9.60
2019-06-26T23:17:04.724Z,10.63
2019-06-26T23:19:31.951Z,9.10
2019-06-26T23:21:59.289Z,10.87
2019-06-26T23:24:26.434Z,10.30
2019-06-26T23:26:53.676Z,10.67
2019-06-26T23:29:20.826Z,9.80
2019-06-26T23:31:48.060Z,10.67
2019-06-26T23:34:15.291Z,10.27
2019-06-26T23:36:42.546Z,10.47
2019-06-26T23:39:09.801Z,10.93
2019-06-26T23:41:37.048Z,10.33
2019-06-26T23:44:04.392Z,10.20
2019-06-26T23:46:31.640Z,9.90
2019-06-26T23:48:58.760Z,9.23
2019-06-26T23:51:25.887Z,10.00
2019-06-26T23:53:53.031Z,9.93
2019-06-26T23:56:20.162Z,9.20
2019-06-26T23:58:47.312Z,9.80
